Terminal Aerodrome Forecast
Issued by NWS

Home | Current Version | Previous Version | Text Only | Print | Product List | Glossary On
Versions: 1 2 3 4 5 6 7 8 9 10 11 12 13
000
FTUS45 KTFX 281721
TAFBZN
TAF
KBZN 281721Z 2818/2918 VRB04KT P6SM VCSH SCT015 OVC045
     FM281900 33005KT P6SM -SHRA SCT015 OVC045
      TEMPO 2819/2823 4SM SHRA OVC015
     FM282300 33007KT P6SM VCSH OVC045
      TEMPO 2823/2903 -SHRA BKN025
     FM291000 VRB05KT 5SM BR OVC015
     FM291400 VRB05KT P6SM SCT050=

USA.gov is the U.S. government's official web portal to all federal, state and local government web resources and services.